createdAt,value
2017-04-11T00:00:03.018Z,0
2017-04-11T00:05:03.172Z,0
2017-04-11T00:10:02.928Z,0
2017-04-11T00:15:02.571Z,0
2017-04-11T00:20:03.256Z,0
2017-04-11T00:25:03.008Z,0
2017-04-11T00:30:02.850Z,0
2017-04-11T00:35:02.493Z,0
2017-04-11T00:40:03.270Z,0
2017-04-11T00:45:02.850Z,0
2017-04-11T00:50:03.504Z,0
2017-04-11T00:55:03.258Z,0
2017-04-11T01:00:03.024Z,0
2017-04-11T01:05:02.766Z,0
2017-04-11T01:10:02.569Z,0
2017-04-11T01:15:03.321Z,0
2017-04-11T01:20:02.962Z,0
2017-04-11T01:25:02.760Z,0
2017-04-11T01:30:03.457Z,0
2017-04-11T01:35:03.133Z,0
2017-04-11T01:40:02.770Z,0
2017-04-11T01:45:03.477Z,0
2017-04-11T01:50:03.259Z,0
2017-04-11T01:55:02.914Z,0
2017-04-11T02:00:02.862Z,0
2017-04-11T02:05:02.494Z,0
2017-04-11T02:10:03.238Z,0
2017-04-11T02:15:02.882Z,0
2017-04-11T02:20:02.635Z,0
2017-04-11T02:25:03.416Z,0
2017-04-11T02:30:03.065Z,0
2017-04-11T02:35:02.713Z,0
2017-04-11T02:40:02.607Z,0
2017-04-11T02:45:03.351Z,0
2017-04-11T02:50:03.034Z,0
2017-04-11T02:55:02.661Z,0
2017-04-11T03:00:03.406Z,0
2017-04-11T03:05:03.001Z,0
2017-04-11T03:10:02.751Z,0
2017-04-11T03:15:03.443Z,0
2017-04-11T03:20:03.249Z,0
2017-04-11T03:25:02.987Z,0
2017-04-11T03:30:02.806Z,0
2017-04-11T03:35:02.495Z,0
2017-04-11T03:40:03.234Z,0
2017-04-11T03:45:02.925Z,0
2017-04-11T03:50:02.700Z,0
2017-04-11T03:55:03.586Z,0
2017-04-11T04:00:03.311Z,0
2017-04-11T04:05:02.928Z,0
2017-04-11T04:10:02.603Z,0
2017-04-11T04:15:03.201Z,1
2017-04-11T04:20:02.887Z,2
2017-04-11T04:25:02.584Z,5
2017-04-11T04:30:03.353Z,11
2017-04-11T04:35:03.154Z,26
2017-04-11T04:40:02.936Z,36
2017-04-11T04:45:02.592Z,45
2017-04-11T04:50:03.214Z,56
2017-04-11T04:55:02.938Z,61
2017-04-11T05:00:02.741Z,83
2017-04-11T05:05:03.458Z,130
2017-04-11T05:10:03.258Z,205
2017-04-11T05:15:02.974Z,292
2017-04-11T05:20:02.522Z,351
2017-04-11T05:25:03.124Z,415
2017-04-11T05:30:02.716Z,546
2017-04-11T05:35:03.340Z,664
2017-04-11T05:40:03.186Z,755
2017-04-11T05:45:02.925Z,703
2017-04-11T05:50:02.662Z,776
2017-04-11T05:55:03.448Z,804
2017-04-11T06:00:03.177Z,673
2017-04-11T06:05:02.793Z,673
2017-04-11T06:10:02.548Z,939
2017-04-11T06:15:03.183Z,1000
2017-04-11T06:20:02.879Z,1000
2017-04-11T06:25:02.621Z,1000
2017-04-11T06:30:03.271Z,1000
2017-04-11T06:35:02.970Z,1000
2017-04-11T06:40:02.735Z,1000
2017-04-11T06:45:02.460Z,1000
2017-04-11T06:50:03.239Z,1000
2017-04-11T06:55:03.016Z,2000
2017-04-11T07:00:02.587Z,2000
2017-04-11T07:05:03.379Z,2000
2017-04-11T07:10:03.131Z,2000
2017-04-11T07:15:02.813Z,3000
2017-04-11T07:20:03.444Z,3000
2017-04-11T07:25:03.013Z,3000
2017-04-11T07:30:02.660Z,4000
2017-04-11T07:35:03.256Z,5000
2017-04-11T07:40:02.927Z,6000
2017-04-11T07:45:02.522Z,7000
2017-04-11T07:50:03.120Z,7000
2017-04-11T07:55:02.769Z,8000
2017-04-11T08:00:03.478Z,10000
2017-04-11T08:05:03.224Z,11000
2017-04-11T08:10:03.028Z,18000
2017-04-11T08:15:02.825Z,13000
2017-04-11T08:20:03.489Z,18000
2017-04-11T08:25:03.301Z,12000
2017-04-11T08:30:02.907Z,10000
2017-04-11T08:35:02.707Z,11000
2017-04-11T08:40:03.372Z,12000
2017-04-11T08:45:03.077Z,13000
2017-04-11T08:50:02.902Z,15000
2017-04-11T08:55:03.198Z,12000
2017-04-11T09:00:02.816Z,64000
2017-04-11T09:05:03.037Z,28000
2017-04-11T09:10:03.133Z,16000
2017-04-11T09:15:02.818Z,14000
2017-04-11T09:20:02.837Z,62000
2017-04-11T09:25:02.541Z,32000
2017-04-11T09:30:03.041Z,28000
2017-04-11T09:35:02.994Z,49000
2017-04-11T09:40:02.645Z,57000
2017-04-11T09:45:03.166Z,36000
2017-04-11T09:50:02.865Z,41000
2017-04-11T09:55:02.965Z,42000
2017-04-11T10:00:02.917Z,56000
2017-04-11T10:05:02.976Z,37000
2017-04-11T10:10:02.619Z,36000
2017-04-11T10:15:03.260Z,59000
2017-04-11T10:20:02.650Z,36000
2017-04-11T10:25:02.938Z,16000
2017-04-11T10:30:03.364Z,35000
2017-04-11T10:35:03.169Z,37000
2017-04-11T10:40:02.924Z,12000
2017-04-11T10:45:02.925Z,11000
2017-04-11T10:50:03.103Z,14000
2017-04-11T10:55:03.039Z,10000
2017-04-11T11:00:03.234Z,7000
2017-04-11T11:05:02.506Z,7000
2017-04-11T11:10:03.057Z,58000
2017-04-11T11:15:02.555Z,29000
2017-04-11T11:20:02.841Z,37000
2017-04-11T11:25:02.877Z,15000
2017-04-11T11:30:03.451Z,11000
2017-04-11T11:35:03.473Z,64000
2017-04-11T11:40:02.896Z,13000
2017-04-11T11:45:02.960Z,10000
2017-04-11T11:50:03.238Z,11000
2017-04-11T11:55:03.251Z,8000
2017-04-11T12:00:02.827Z,10000
2017-04-11T12:05:02.911Z,52000
2017-04-11T12:10:02.502Z,56000
2017-04-11T12:15:03.122Z,46000
2017-04-11T12:20:02.798Z,51000
2017-04-11T12:25:03.025Z,20000
2017-04-11T12:30:03.444Z,6000
2017-04-11T12:35:03.422Z,4000
2017-04-11T12:40:03.448Z,3000
2017-04-11T12:45:03.320Z,3000
2017-04-11T12:50:02.751Z,3000
2017-04-11T12:55:02.779Z,2000
2017-04-11T13:00:02.735Z,2000
2017-04-11T13:05:03.026Z,3000
2017-04-11T13:10:03.155Z,4000
2017-04-11T13:15:02.605Z,4000
2017-04-11T13:20:03.012Z,4000
2017-04-11T13:25:02.657Z,5000
2017-04-11T13:30:03.359Z,10000
2017-04-11T13:35:02.698Z,11000
2017-04-11T13:40:03.106Z,5000
2017-04-11T13:45:03.213Z,4000
2017-04-11T13:50:03.209Z,5000
2017-04-11T13:55:03.413Z,10000
2017-04-11T14:00:02.872Z,13000
2017-04-11T14:05:02.791Z,8000
2017-04-11T14:10:03.120Z,5000
2017-04-11T14:15:03.026Z,5000
2017-04-11T14:20:02.911Z,9000
2017-04-11T14:25:03.107Z,13000
2017-04-11T14:30:03.377Z,12000
2017-04-11T14:35:03.018Z,10000
2017-04-11T14:40:03.476Z,10000
2017-04-11T14:45:02.958Z,23000
2017-04-11T14:50:02.533Z,28000
2017-04-11T14:55:03.138Z,8000
2017-04-11T15:00:03.339Z,25000
2017-04-11T15:05:02.822Z,26000
2017-04-11T15:10:02.622Z,17000
2017-04-11T15:15:02.805Z,18000
2017-04-11T15:20:03.247Z,13000
2017-04-11T15:25:02.729Z,9000
2017-04-11T15:30:02.840Z,9000
2017-04-11T15:35:03.157Z,9000
2017-04-11T15:40:02.783Z,9000
2017-04-11T15:45:02.761Z,8000
2017-04-11T15:50:02.826Z,7000
2017-04-11T15:55:02.951Z,7000
2017-04-11T16:00:02.584Z,7000
2017-04-11T16:05:02.573Z,8000
2017-04-11T16:10:03.331Z,6000
2017-04-11T16:15:03.225Z,6000
2017-04-11T16:20:03.166Z,11000
2017-04-11T16:25:03.124Z,10000
2017-04-11T16:30:02.945Z,9000
2017-04-11T16:35:02.775Z,10000
2017-04-11T16:40:02.597Z,10000
2017-04-11T16:45:03.191Z,5000
2017-04-11T16:50:02.958Z,5000
2017-04-11T16:55:02.706Z,8000
2017-04-11T17:00:03.462Z,8000
2017-04-11T17:05:03.232Z,8000
2017-04-11T17:10:02.898Z,6000
2017-04-11T17:15:02.673Z,6000
2017-04-11T17:20:02.499Z,7000
2017-04-11T17:25:03.069Z,7000
2017-04-11T17:30:02.889Z,4000
2017-04-11T17:35:02.524Z,3000
2017-04-11T17:40:03.315Z,3000
2017-04-11T17:45:03.014Z,1000
2017-04-11T17:50:02.702Z,1000
2017-04-11T17:55:03.389Z,1000
2017-04-11T18:00:03.072Z,1000
2017-04-11T18:05:02.829Z,849
2017-04-11T18:10:02.603Z,665
2017-04-11T18:15:03.446Z,402
2017-04-11T18:20:03.321Z,278
2017-04-11T18:25:02.972Z,147
2017-04-11T18:30:02.712Z,63
2017-04-11T18:35:02.507Z,48
2017-04-11T18:40:03.129Z,28
2017-04-11T18:45:02.691Z,14
2017-04-11T18:50:02.544Z,6
2017-04-11T18:55:03.220Z,4
2017-04-11T19:00:03.010Z,1
2017-04-11T19:05:02.678Z,0
2017-04-11T19:10:02.536Z,0
2017-04-11T19:15:03.191Z,0
2017-04-11T19:20:02.861Z,0
2017-04-11T19:25:02.491Z,0
2017-04-11T19:30:03.308Z,0
2017-04-11T19:35:03.031Z,0
2017-04-11T19:40:02.733Z,0
2017-04-11T19:45:03.285Z,0
2017-04-11T19:50:03.128Z,0
2017-04-11T19:55:02.921Z,0
2017-04-11T20:00:02.697Z,0
2017-04-11T20:05:03.447Z,0
2017-04-11T20:10:03.192Z,0
2017-04-11T20:15:02.935Z,0
2017-04-11T20:20:02.683Z,0
2017-04-11T20:25:03.439Z,0
2017-04-11T20:30:03.150Z,0
2017-04-11T20:35:02.890Z,0
2017-04-11T20:40:02.756Z,0
2017-04-11T20:45:03.375Z,0
2017-04-11T20:50:03.044Z,0
2017-04-11T20:55:02.713Z,0
2017-04-11T21:00:02.493Z,0
2017-04-11T21:05:02.534Z,0
2017-04-11T21:10:03.234Z,0
2017-04-11T21:15:03.018Z,0
2017-04-11T21:20:02.889Z,0
2017-04-11T21:25:02.686Z,0
2017-04-11T21:30:02.796Z,0
2017-04-11T21:35:02.511Z,0
2017-04-11T21:40:03.186Z,0
2017-04-11T21:45:02.963Z,0
2017-04-11T21:50:02.766Z,0
2017-04-11T21:55:03.365Z,0
2017-04-11T22:00:03.102Z,0
2017-04-11T22:05:02.856Z,0
2017-04-11T22:10:02.513Z,0
2017-04-11T22:15:03.299Z,0
2017-04-11T22:20:02.983Z,0
2017-04-11T22:25:02.551Z,0
2017-04-11T22:30:03.292Z,0
2017-04-11T22:35:03.107Z,0
2017-04-11T22:40:02.882Z,0
2017-04-11T22:45:02.594Z,0
2017-04-11T22:50:03.206Z,0
2017-04-11T22:55:03.137Z,0
2017-04-11T23:00:02.862Z,0
2017-04-11T23:05:02.859Z,0
2017-04-11T23:10:02.741Z,0
2017-04-11T23:15:03.515Z,0
2017-04-11T23:25:02.573Z,0
2017-04-11T23:30:02.604Z,0
2017-04-11T23:35:02.670Z,0
2017-04-11T23:40:02.564Z,0
2017-04-11T23:45:03.203Z,0
2017-04-11T23:50:02.734Z,0
2017-04-11T23:55:03.382Z,0
